Time;durP1;ratioP1;P1;durP2;ratioP2;P2;SDS_P1;SDS_P2;PMS_P1;PMS_P2;Temp;Humidity;BMP_temperature;BMP_pressure;BME280_temperature;BME280_humidity;BME280_pressure;Samples;Min_cycle;Max_cycle;Signal;HPM_P1;HPM_P2
2021/11/27 00:00:45;;;;;;;9.38;7.03;;;7.50;95.10;;;;;;5075450;28;20220;-63
2021/11/27 00:03:12;;;;;;;9.63;8.52;;;7.50;95.10;;;;;;5075649;28;20224;-63
2021/11/27 00:05:40;;;;;;;12.48;9.15;;;7.50;95.00;;;;;;5074829;28;20635;-63
2021/11/27 00:08:08;;;;;;;8.70;7.82;;;7.50;94.90;;;;;;5074180;28;20681;-63
2021/11/27 00:10:37;;;;;;;10.55;7.88;;;7.50;94.90;;;;;;5074827;28;20227;-63
2021/11/27 00:13:06;;;;;;;9.90;8.00;;;7.50;94.80;;;;;;5071603;28;20577;-63
2021/11/27 00:15:36;;;;;;;9.93;7.47;;;7.50;94.90;;;;;;5075128;28;20228;-63
2021/11/27 00:18:04;;;;;;;9.68;8.68;;;7.50;95.20;;;;;;5073820;28;20236;-63
2021/11/27 00:20:35;;;;;;;11.13;9.27;;;7.40;94.90;;;;;;5069808;28;20212;-63
2021/11/27 00:23:02;;;;;;;7.93;7.00;;;7.40;94.90;;;;;;5075338;28;20224;-63
2021/11/27 00:25:29;;;;;;;8.80;7.90;;;7.40;95.00;;;;;;5074782;28;20232;-63
2021/11/27 00:27:56;;;;;;;9.85;7.78;;;7.40;94.90;;;;;;5075106;28;20590;-63
2021/11/27 00:30:29;;;;;;;8.77;7.70;;;7.30;95.10;;;;;;5074843;28;20244;-62
2021/11/27 00:32:58;;;;;;;11.35;9.32;;;7.30;95.00;;;;;;5075254;28;20231;-63
2021/11/27 00:35:25;;;;;;;13.48;10.40;;;7.40;95.10;;;;;;5074267;28;20693;-63
2021/11/27 00:37:55;;;;;;;10.90;9.45;;;7.30;95.00;;;;;;5075020;28;20224;-63
2021/11/27 00:40:23;;;;;;;10.27;9.10;;;7.30;95.10;;;;;;5074161;28;20231;-63
2021/11/27 00:42:51;;;;;;;12.05;9.02;;;7.30;95.50;;;;;;5074854;28;20224;-63
2021/11/27 00:45:21;;;;;;;9.38;8.30;;;7.30;95.10;;;;;;5074423;28;20606;-63
2021/11/27 00:47:50;;;;;;;11.82;10.15;;;7.30;95.20;;;;;;5074348;28;20220;-63
2021/11/27 00:50:23;;;;;;;11.45;8.48;;;7.40;95.30;;;;;;5074506;28;20694;-64
2021/11/27 00:52:52;;;;;;;12.85;9.07;;;7.40;95.20;;;;;;5074393;28;20964;-63
2021/11/27 00:55:20;;;;;;;11.10;8.57;;;7.40;95.20;;;;;;5074685;28;20307;-63
2021/11/27 00:57:48;;;;;;;12.18;9.48;;;7.30;95.00;;;;;;5074085;28;20243;-63
2021/11/27 01:00:19;;;;;;;11.75;9.15;;;7.30;95.50;;;;;;5074534;28;20682;-63
2021/11/27 01:02:47;;;;;;;10.68;8.23;;;7.30;95.20;;;;;;5074246;28;20232;-63
2021/11/27 01:05:14;;;;;;;10.68;8.60;;;7.20;95.30;;;;;;5074376;28;20231;-63
2021/11/27 01:07:43;;;;;;;11.73;8.15;;;7.20;95.30;;;;;;5073879;28;20227;-63
2021/11/27 01:10:15;;;;;;;13.90;9.73;;;7.20;95.20;;;;;;5074607;28;20572;-63
2021/11/27 01:12:42;;;;;;;10.93;8.40;;;7.20;95.30;;;;;;5070800;28;20224;-63
2021/11/27 01:15:12;;;;;;;10.50;8.43;;;7.20;95.40;;;;;;5074433;28;20238;-64
2021/11/27 01:17:39;;;;;;;10.30;8.50;;;7.20;95.30;;;;;;5073786;28;20216;-63
2021/11/27 01:20:08;;;;;;;10.23;9.20;;;7.20;95.30;;;;;;5074009;28;20228;-63
2021/11/27 01:22:35;;;;;;;9.80;8.80;;;7.20;95.10;;;;;;5072787;28;20301;-63
2021/11/27 01:25:04;;;;;;;9.50;8.15;;;7.20;95.30;;;;;;5074167;28;20219;-63
2021/11/27 01:27:31;;;;;;;9.93;8.50;;;7.20;95.40;;;;;;5073485;28;20231;-63
2021/11/27 01:29:58;;;;;;;11.98;9.02;;;7.10;95.40;;;;;;5073923;28;20227;-63
2021/11/27 01:32:25;;;;;;;12.02;9.80;;;7.10;95.70;;;;;;5074012;28;20624;-63
2021/11/27 01:34:53;;;;;;;15.55;9.45;;;7.10;95.40;;;;;;5073388;28;20752;-63
2021/11/27 01:37:20;;;;;;;11.15;8.80;;;7.00;95.40;;;;;;5073800;28;20293;-62
2021/11/27 01:39:46;;;;;;;10.27;8.15;;;7.10;95.60;;;;;;5073445;28;20678;-63
2021/11/27 01:42:15;;;;;;;12.00;9.07;;;7.10;95.60;;;;;;5073202;28;20232;-63
2021/11/27 01:44:42;;;;;;;9.55;8.55;;;7.00;95.50;;;;;;5073135;28;20230;-63
2021/11/27 01:47:10;;;;;;;10.32;9.32;;;7.00;95.60;;;;;;5073765;28;20239;-63
2021/11/27 01:49:37;;;;;;;9.75;7.82;;;7.00;95.60;;;;;;5073225;28;20228;-63
2021/11/27 01:52:06;;;;;;;11.38;9.32;;;7.00;95.70;;;;;;5072691;28;20281;-63
2021/11/27 01:54:34;;;;;;;10.32;8.68;;;7.00;95.80;;;;;;5072816;28;20220;-63
2021/11/27 01:57:04;;;;;;;10.40;8.45;;;6.90;95.60;;;;;;5073238;28;20310;-63
2021/11/27 01:59:36;;;;;;;11.73;8.73;;;6.90;95.70;;;;;;5073087;28;20232;-63
2021/11/27 02:02:05;;;;;;;13.23;9.38;;;6.80;95.70;;;;;;5065708;28;20228;-63
2021/11/27 02:04:32;;;;;;;12.23;8.82;;;6.80;95.90;;;;;;5072997;28;20236;-63
2021/11/27 02:06:59;;;;;;;11.10;8.60;;;6.80;96.00;;;;;;5073300;28;20232;-63
2021/11/27 02:09:29;;;;;;;9.45;8.23;;;6.80;95.90;;;;;;5073208;28;20228;-63
2021/11/27 02:11:59;;;;;;;11.00;9.10;;;6.80;96.00;;;;;;5072656;28;21256;-63
2021/11/27 02:14:26;;;;;;;10.73;8.20;;;6.90;96.10;;;;;;5056642;28;20282;-63
2021/11/27 02:16:55;;;;;;;17.20;9.80;;;6.80;95.90;;;;;;5072746;28;20224;-63
2021/11/27 02:19:22;;;;;;;11.35;9.00;;;6.80;96.00;;;;;;5069321;28;20286;-63
2021/11/27 02:21:51;;;;;;;11.48;9.13;;;6.80;96.00;;;;;;5071215;28;20273;-63
2021/11/27 02:24:20;;;;;;;9.32;8.30;;;6.80;96.00;;;;;;5072765;28;20282;-63
2021/11/27 02:26:49;;;;;;;11.30;9.35;;;6.70;96.10;;;;;;5072471;28;20601;-63
2021/11/27 02:29:18;;;;;;;10.13;8.65;;;6.70;96.10;;;;;;5072821;28;20685;-63
2021/11/27 02:31:46;;;;;;;11.00;9.80;;;6.70;96.10;;;;;;5072411;28;20285;-63
2021/11/27 02:34:14;;;;;;;12.90;10.60;;;6.70;96.10;;;;;;5072146;28;20236;-63
2021/11/27 02:36:46;;;;;;;10.13;9.13;;;6.80;96.20;;;;;;5072284;28;20224;-63
2021/11/27 02:39:16;;;;;;;10.82;9.73;;;6.80;96.10;;;;;;5072258;28;20234;-63
2021/11/27 02:41:43;;;;;;;13.07;9.82;;;6.80;95.90;;;;;;5072414;28;20235;-64
2021/11/27 02:44:10;;;;;;;10.98;9.15;;;6.80;96.00;;;;;;5072577;28;20243;-63
2021/11/27 02:46:37;;;;;;;10.88;9.05;;;6.80;96.00;;;;;;5072155;28;20712;-63
2021/11/27 02:49:05;;;;;;;13.63;8.57;;;6.70;95.90;;;;;;5072463;28;20228;-63
2021/11/27 02:51:32;;;;;;;12.35;9.10;;;6.70;96.10;;;;;;5072228;28;20616;-63
2021/11/27 02:53:59;;;;;;;11.93;8.95;;;6.60;96.10;;;;;;5072046;28;20232;-63
2021/11/27 02:56:28;;;;;;;17.52;10.70;;;6.60;96.10;;;;;;5072378;28;20227;-63
2021/11/27 02:58:55;;;;;;;11.50;9.45;;;6.60;96.00;;;;;;5072078;28;20282;-63
2021/11/27 03:01:23;;;;;;;12.35;9.23;;;6.60;96.20;;;;;;5072363;28;20254;-63
2021/11/27 03:03:50;;;;;;;10.05;8.00;;;6.60;96.10;;;;;;5072146;28;20236;-64
2021/11/27 03:06:17;;;;;;;10.40;8.88;;;6.50;96.10;;;;;;5071839;28;20231;-63
2021/11/27 03:08:44;;;;;;;12.52;9.30;;;6.50;96.10;;;;;;5072148;28;20232;-63
2021/11/27 03:11:11;;;;;;;10.82;9.23;;;6.50;96.00;;;;;;5071940;28;20239;-63
2021/11/27 03:13:40;;;;;;;13.48;10.18;;;6.40;96.10;;;;;;5068954;28;20228;-63
2021/11/27 03:16:07;;;;;;;11.25;8.68;;;6.40;96.20;;;;;;5071832;28;20311;-64
2021/11/27 03:18:35;;;;;;;10.05;9.05;;;6.40;96.30;;;;;;5072451;28;20799;-63
2021/11/27 03:21:02;;;;;;;11.90;9.02;;;6.40;96.30;;;;;;5071429;28;20254;-63
2021/11/27 03:23:30;;;;;;;11.45;9.38;;;6.30;96.40;;;;;;5071935;28;20319;-63
2021/11/27 03:25:58;;;;;;;11.43;9.45;;;6.30;96.50;;;;;;5071523;28;20277;-63
2021/11/27 03:28:27;;;;;;;11.05;9.85;;;6.30;96.50;;;;;;5072249;28;20285;-63
2021/11/27 03:30:56;;;;;;;12.65;8.98;;;6.30;96.20;;;;;;5071689;28;20550;-63
2021/11/27 03:33:23;;;;;;;11.20;8.35;;;6.30;96.40;;;;;;5072211;28;20244;-63
2021/11/27 03:35:51;;;;;;;13.40;9.10;;;6.20;96.30;;;;;;5071410;28;20234;-63
2021/11/27 03:38:18;;;;;;;10.65;9.18;;;6.20;96.30;;;;;;5072261;28;20227;-63
2021/11/27 03:40:45;;;;;;;11.95;9.70;;;6.30;96.40;;;;;;5071587;28;20612;-63
2021/11/27 03:43:12;;;;;;;13.95;8.45;;;6.30;96.40;;;;;;5072069;28;20694;-63
2021/11/27 03:45:39;;;;;;;11.48;8.75;;;6.30;96.40;;;;;;5070900;28;20293;-63
2021/11/27 03:48:11;;;;;;;11.38;8.65;;;6.30;96.40;;;;;;5071370;28;20216;-63
2021/11/27 03:50:42;;;;;;;12.80;8.90;;;6.30;96.20;;;;;;5064620;28;20238;-63
2021/11/27 03:53:09;;;;;;;11.77;8.50;;;6.30;96.40;;;;;;5071725;28;20224;-63
2021/11/27 03:55:37;;;;;;;9.80;8.57;;;6.30;96.30;;;;;;5072191;28;20554;-63
2021/11/27 03:58:04;;;;;;;12.32;9.27;;;6.30;96.40;;;;;;5071389;28;20247;-63
2021/11/27 04:00:35;;;;;;;12.57;8.80;;;6.30;96.30;;;;;;5072098;28;20228;-63
2021/11/27 04:03:03;;;;;;;10.27;9.18;;;6.30;96.30;;;;;;5071499;28;20234;-63
2021/11/27 04:05:32;;;;;;;12.75;9.40;;;6.30;96.30;;;;;;5071715;28;20261;-63
2021/11/27 04:07:59;;;;;;;14.20;8.68;;;6.30;96.20;;;;;;5071392;28;20305;-63
2021/11/27 04:10:27;;;;;;;13.40;8.95;;;6.30;96.20;;;;;;5071955;28;20286;-63
2021/11/27 04:12:54;;;;;;;15.85;8.63;;;6.20;96.00;;;;;;5068220;28;20216;-63
2021/11/27 04:15:21;;;;;;;9.82;8.68;;;6.10;96.00;;;;;;5071763;28;20232;-63
2021/11/27 04:17:49;;;;;;;11.25;8.80;;;6.10;96.10;;;;;;5070808;28;20232;-63
2021/11/27 04:20:17;;;;;;;12.10;8.07;;;6.10;96.00;;;;;;5072275;28;20319;-63
2021/11/27 04:22:48;;;;;;;12.60;8.80;;;6.10;96.10;;;;;;5068851;28;20319;-63
2021/11/27 04:25:16;;;;;;;10.07;8.73;;;6.00;96.00;;;;;;5068960;28;20230;-63
2021/11/27 04:27:44;;;;;;;13.02;7.85;;;6.00;96.10;;;;;;5072608;28;20224;-63
2021/11/27 04:30:14;;;;;;;11.25;8.98;;;6.00;96.20;;;;;;5074732;28;20297;-63
2021/11/27 04:32:41;;;;;;;12.40;9.13;;;6.00;96.30;;;;;;5075184;28;20669;-63
2021/11/27 04:35:09;;;;;;;11.82;8.63;;;6.00;96.30;;;;;;5074204;28;20234;-63
2021/11/27 04:37:36;;;;;;;12.20;8.90;;;6.00;96.20;;;;;;5073663;28;20231;-63
2021/11/27 04:40:06;;;;;;;13.02;8.90;;;6.00;96.30;;;;;;5074518;28;20224;-63
2021/11/27 04:42:36;;;;;;;13.48;8.25;;;6.00;96.30;;;;;;5074435;28;20224;-63
2021/11/27 04:45:05;;;;;;;11.40;8.40;;;6.00;96.30;;;;;;5074463;28;20220;-63
2021/11/27 04:47:33;;;;;;;11.57;9.00;;;6.00;96.40;;;;;;5075047;28;20223;-63
2021/11/27 04:50:00;;;;;;;11.73;8.10;;;6.00;96.30;;;;;;5074175;28;20293;-63
2021/11/27 04:52:27;;;;;;;11.40;7.30;;;6.00;96.20;;;;;;5074614;28;20228;-63
2021/11/27 04:54:54;;;;;;;12.02;8.90;;;6.00;96.20;;;;;;5074542;28;20617;-63
2021/11/27 04:57:22;;;;;;;11.25;9.35;;;6.00;96.30;;;;;;5074363;28;20216;-63
2021/11/27 04:59:49;;;;;;;15.60;8.65;;;6.00;96.30;;;;;;5074645;28;20239;-63
2021/11/27 05:02:16;;;;;;;11.48;8.45;;;6.10;96.30;;;;;;5074124;28;20677;-63
2021/11/27 05:04:44;;;;;;;10.35;8.98;;;6.00;96.20;;;;;;5074532;28;20668;-63
2021/11/27 05:07:10;;;;;;;13.07;9.73;;;6.00;96.20;;;;;;5073805;28;20694;-63
2021/11/27 05:09:37;;;;;;;12.55;9.77;;;6.10;96.20;;;;;;5074340;28;20231;-63
2021/11/27 05:12:05;;;;;;;11.48;9.35;;;6.10;96.30;;;;;;5073476;28;20213;-63
2021/11/27 05:14:33;;;;;;;11.65;8.75;;;6.10;96.10;;;;;;5063165;28;20220;-63
2021/11/27 05:17:00;;;;;;;11.57;8.40;;;6.10;96.10;;;;;;5074011;28;20224;-63
2021/11/27 05:19:27;;;;;;;10.98;8.55;;;6.10;96.10;;;;;;5074147;28;20227;-64
2021/11/27 05:21:54;;;;;;;12.77;8.93;;;6.20;96.20;;;;;;5072976;28;20224;-63
2021/11/27 05:24:21;;;;;;;14.75;9.50;;;6.20;96.10;;;;;;5073849;28;20223;-63
2021/11/27 05:26:48;;;;;;;11.90;8.70;;;6.20;95.90;;;;;;5074090;28;20294;-63
2021/11/27 05:29:15;;;;;;;13.65;9.73;;;6.20;95.90;;;;;;5073395;28;20235;-63
2021/11/27 05:31:45;;;;;;;11.98;8.55;;;6.20;95.90;;;;;;5073546;28;20220;-63
2021/11/27 05:34:32;;;;;;;11.20;8.90;;;6.20;96.10;;;;;;5072965;28;20236;-63
2021/11/27 05:37:00;;;;;;;12.32;9.02;;;6.20;95.90;;;;;;5073384;28;20220;-63
2021/11/27 05:39:27;;;;;;;13.18;9.18;;;6.20;95.90;;;;;;5073402;28;20232;-63
2021/11/27 05:41:54;;;;;;;12.48;9.20;;;6.30;96.00;;;;;;5073863;28;20640;-63
2021/11/27 05:44:21;;;;;;;10.48;9.20;;;6.30;95.90;;;;;;5073410;28;20227;-63
2021/11/27 05:46:49;;;;;;;15.20;9.52;;;6.30;95.90;;;;;;5073151;28;20228;-63
2021/11/27 05:49:16;;;;;;;11.68;9.70;;;6.40;95.90;;;;;;5071550;28;20239;-63
2021/11/27 05:51:43;;;;;;;13.40;10.30;;;6.40;95.80;;;;;;5073715;28;20220;-63
2021/11/27 05:54:10;;;;;;;14.88;12.15;;;6.40;95.70;;;;;;5073142;28;20289;-63
2021/11/27 05:56:37;;;;;;;12.93;10.07;;;6.30;95.70;;;;;;5073639;28;21566;-64
2021/11/27 05:59:04;;;;;;;14.05;11.70;;;6.30;95.70;;;;;;5072845;28;20227;-63
2021/11/27 06:01:32;;;;;;;15.18;12.55;;;6.40;95.80;;;;;;5073298;28;20561;-63
2021/11/27 06:04:00;;;;;;;13.75;10.77;;;6.40;95.80;;;;;;5072909;28;20614;-63
2021/11/27 06:06:27;;;;;;;13.15;10.82;;;6.30;95.90;;;;;;5072951;28;21133;-63
2021/11/27 06:08:55;;;;;;;14.50;11.35;;;6.30;95.80;;;;;;5073094;28;20227;-63
2021/11/27 06:11:22;;;;;;;14.77;10.48;;;6.30;95.80;;;;;;5072873;28;20224;-63
2021/11/27 06:13:50;;;;;;;11.88;9.18;;;6.30;96.00;;;;;;5072923;28;20220;-63
2021/11/27 06:16:17;;;;;;;12.40;9.52;;;6.30;96.00;;;;;;5072653;28;20620;-63
2021/11/27 06:18:44;;;;;;;15.10;11.48;;;6.30;96.10;;;;;;5073128;28;20228;-63
2021/11/27 06:21:12;;;;;;;14.13;11.50;;;6.40;96.10;;;;;;5071456;28;20237;-63
2021/11/27 06:23:39;;;;;;;15.85;11.88;;;6.40;96.00;;;;;;5072909;28;20716;-63
2021/11/27 06:26:06;;;;;;;15.98;10.77;;;6.30;95.80;;;;;;5072589;28;20608;-63
2021/11/27 06:28:33;;;;;;;18.95;11.30;;;6.30;96.00;;;;;;5069372;28;20224;-63
2021/11/27 06:31:00;;;;;;;17.77;11.95;;;6.30;96.00;;;;;;5072417;28;20235;-63
2021/11/27 06:33:27;;;;;;;15.13;11.50;;;6.30;96.10;;;;;;5071610;28;20216;-63
2021/11/27 06:35:54;;;;;;;16.98;11.93;;;6.20;96.30;;;;;;5072412;28;20303;-63
2021/11/27 06:38:23;;;;;;;11.27;9.07;;;6.20;96.30;;;;;;5071973;28;20230;-63
2021/11/27 06:40:50;;;;;;;18.08;12.63;;;6.20;96.40;;;;;;5054482;28;20228;-63
2021/11/27 06:43:17;;;;;;;16.33;10.75;;;6.20;96.50;;;;;;5055866;28;20239;-63
2021/11/27 06:45:44;;;;;;;19.13;12.75;;;6.20;96.50;;;;;;5070613;28;20761;-63
2021/11/27 06:48:11;;;;;;;18.45;11.60;;;6.20;96.40;;;;;;5066885;28;20225;-63
2021/11/27 06:50:38;;;;;;;18.15;11.88;;;6.30;96.40;;;;;;5052125;28;20225;-63
2021/11/27 06:53:05;;;;;;;16.27;11.48;;;6.40;96.40;;;;;;5052026;28;20228;-64
2021/11/27 06:55:34;;;;;;;16.10;12.75;;;6.40;96.30;;;;;;5051043;28;20232;-63
2021/11/27 06:58:01;;;;;;;18.15;12.48;;;6.30;96.30;;;;;;5051487;28;20220;-64
2021/11/27 07:00:28;;;;;;;15.60;12.05;;;6.40;96.20;;;;;;5051336;28;20243;-63
2021/11/27 07:02:55;;;;;;;17.17;12.15;;;6.40;96.20;;;;;;5051963;28;20236;-63
2021/11/27 07:05:22;;;;;;;17.58;12.50;;;6.30;96.30;;;;;;5051431;28;20235;-63
2021/11/27 07:07:49;;;;;;;15.68;12.23;;;6.30;96.10;;;;;;5051832;28;20235;-63
2021/11/27 07:10:16;;;;;;;18.17;13.50;;;6.30;96.20;;;;;;5051869;28;20303;-63
2021/11/27 07:12:44;;;;;;;19.08;12.50;;;6.30;96.20;;;;;;5060088;28;20212;-63
2021/11/27 07:15:11;;;;;;;18.52;13.80;;;6.30;96.10;;;;;;5052130;28;20625;-63
2021/11/27 07:17:40;;;;;;;20.63;14.43;;;6.30;96.10;;;;;;5052618;28;20511;-63
2021/11/27 07:20:09;;;;;;;21.55;13.23;;;6.30;96.00;;;;;;5052679;28;20232;-63
2021/11/27 07:22:36;;;;;;;17.00;11.88;;;6.30;96.50;;;;;;5072346;28;20220;-63
2021/11/27 07:25:04;;;;;;;21.58;12.95;;;6.30;96.20;;;;;;5072689;28;20220;-63
2021/11/27 07:27:31;;;;;;;18.48;14.18;;;6.30;96.30;;;;;;5071784;28;20245;-63
2021/11/27 07:29:59;;;;;;;19.45;13.20;;;6.30;96.30;;;;;;5072523;28;20227;-63
2021/11/27 07:32:26;;;;;;;20.20;13.40;;;6.30;96.30;;;;;;5072015;28;20220;-63
2021/11/27 07:34:53;;;;;;;22.15;15.23;;;6.30;96.30;;;;;;5072252;28;20228;-63
2021/11/27 07:37:20;;;;;;;21.05;15.30;;;6.30;96.20;;;;;;5071780;28;20224;-63
2021/11/27 07:39:47;;;;;;;24.08;15.60;;;6.30;96.40;;;;;;5072532;28;20568;-61
2021/11/27 07:42:14;;;;;;;22.25;15.35;;;6.40;96.60;;;;;;5071845;28;20231;-62
2021/11/27 07:44:41;;;;;;;18.75;13.63;;;6.40;96.40;;;;;;5071869;28;20285;-61
2021/11/27 07:47:09;;;;;;;17.45;13.50;;;6.40;96.30;;;;;;5063066;28;20235;-62
2021/11/27 07:49:36;;;;;;;19.23;13.90;;;6.50;96.30;;;;;;5051617;28;20570;-62
2021/11/27 07:52:03;;;;;;;23.38;14.98;;;6.50;96.10;;;;;;5052280;28;20278;-62
2021/11/27 07:54:30;;;;;;;17.25;13.63;;;6.40;96.00;;;;;;5054883;28;20225;-62
2021/11/27 07:56:57;;;;;;;22.95;13.95;;;6.30;96.00;;;;;;5056090;28;20225;-62
2021/11/27 07:59:25;;;;;;;19.45;14.05;;;6.40;96.10;;;;;;5065839;28;20300;-62
2021/11/27 08:01:51;;;;;;;22.48;15.18;;;6.50;96.00;;;;;;5075986;28;20278;-62
2021/11/27 08:04:20;;;;;;;23.05;15.05;;;6.50;96.20;;;;;;5075405;28;20281;-62
2021/11/27 08:06:47;;;;;;;20.98;13.55;;;6.60;96.10;;;;;;5075331;28;20248;-62
2021/11/27 08:09:14;;;;;;;18.33;14.13;;;6.60;96.00;;;;;;5061687;28;20232;-62
2021/11/27 08:11:41;;;;;;;19.40;12.77;;;6.70;96.00;;;;;;5056273;28;21005;-62
2021/11/27 08:14:08;;;;;;;21.90;13.90;;;6.70;95.80;;;;;;5062183;28;20220;-62
2021/11/27 08:16:35;;;;;;;21.33;17.02;;;6.70;95.70;;;;;;5055265;28;20236;-63
2021/11/27 08:19:01;;;;;;;20.52;16.27;;;6.80;95.70;;;;;;5060758;28;20220;-62
2021/11/27 08:21:30;;;;;;;20.75;14.93;;;6.70;95.30;;;;;;5075067;28;20228;-62
2021/11/27 08:23:57;;;;;;;26.13;15.20;;;6.80;95.20;;;;;;5075559;28;20224;-62
2021/11/27 08:26:24;;;;;;;17.90;13.38;;;6.70;95.30;;;;;;5073087;28;20278;-62
2021/11/27 08:28:51;;;;;;;21.98;14.88;;;6.80;95.40;;;;;;5075756;28;20565;-62
2021/11/27 08:31:18;;;;;;;20.45;15.07;;;6.80;95.20;;;;;;5074606;28;20621;-62
2021/11/27 08:33:45;;;;;;;25.50;16.10;;;6.80;95.20;;;;;;5075323;28;20573;-63
2021/11/27 08:36:12;;;;;;;19.13;14.65;;;6.80;95.20;;;;;;5075337;28;20269;-62
2021/11/27 08:38:40;;;;;;;22.45;16.05;;;6.90;95.60;;;;;;5057712;28;20231;-62
2021/11/27 08:41:08;;;;;;;16.42;13.40;;;6.90;95.10;;;;;;5072385;28;20232;-62
2021/11/27 08:43:37;;;;;;;21.00;14.82;;;6.90;95.20;;;;;;5074881;28;20231;-63
2021/11/27 08:46:04;;;;;;;21.90;15.32;;;6.90;95.20;;;;;;5075085;28;20608;-63
2021/11/27 08:48:35;;;;;;;21.48;14.35;;;6.90;95.10;;;;;;5074786;28;20219;-63
2021/11/27 08:51:03;;;;;;;21.48;15.55;;;7.00;95.00;;;;;;5074348;28;20234;-63
2021/11/27 08:53:30;;;;;;;19.70;15.57;;;7.10;94.90;;;;;;5061554;28;20228;-63
2021/11/27 08:55:58;;;;;;;18.13;13.00;;;7.00;94.60;;;;;;5054977;28;20224;-62
2021/11/27 08:58:25;;;;;;;20.10;13.50;;;7.00;94.60;;;;;;5054592;28;20282;-62
2021/11/27 09:00:52;;;;;;;19.60;14.48;;;7.00;94.50;;;;;;5055007;28;20232;-62
2021/11/27 09:03:19;;;;;;;17.88;13.95;;;7.00;94.50;;;;;;5054910;28;20236;-62
2021/11/27 09:05:46;;;;;;;18.85;13.63;;;7.00;94.50;;;;;;5054721;28;20227;-62
2021/11/27 09:08:13;;;;;;;23.52;14.50;;;7.10;94.70;;;;;;5054476;28;20229;-62
2021/11/27 09:10:41;;;;;;;18.88;13.85;;;7.20;94.70;;;;;;5054293;28;20252;-62
2021/11/27 09:13:12;;;;;;;20.02;14.43;;;7.20;94.60;;;;;;5062133;28;20232;-62
2021/11/27 09:15:39;;;;;;;17.05;13.43;;;7.30;94.70;;;;;;5072756;28;20604;-62
2021/11/27 09:18:08;;;;;;;20.67;14.43;;;7.30;94.30;;;;;;5074717;28;20236;-61
2021/11/27 09:20:35;;;;;;;20.40;14.63;;;7.40;94.40;;;;;;5074151;28;20301;-62
2021/11/27 09:23:03;;;;;;;20.55;15.35;;;7.40;94.40;;;;;;5074441;28;20228;-62
2021/11/27 09:25:30;;;;;;;19.05;15.88;;;7.50;94.20;;;;;;5074016;28;20278;-62
2021/11/27 09:27:57;;;;;;;23.27;15.82;;;7.50;94.20;;;;;;5072218;28;20232;-62
2021/11/27 09:30:27;;;;;;;19.85;14.82;;;7.50;94.00;;;;;;5073921;28;20290;-62
2021/11/27 09:32:54;;;;;;;22.15;15.18;;;7.60;94.20;;;;;;5074450;28;20261;-62
2021/11/27 09:35:22;;;;;;;21.85;15.30;;;7.60;94.00;;;;;;5074066;28;20235;-61
2021/11/27 09:37:49;;;;;;;22.73;16.63;;;7.50;93.80;;;;;;5074043;28;20315;-61
2021/11/27 09:40:16;;;;;;;23.42;16.00;;;7.50;93.90;;;;;;5074140;28;20289;-62
2021/11/27 09:42:45;;;;;;;21.75;15.63;;;7.60;94.00;;;;;;5073727;28;20224;-62
2021/11/27 09:45:12;;;;;;;22.33;14.40;;;7.50;93.90;;;;;;5074144;28;20224;-62
2021/11/27 09:47:45;;;;;;;19.50;15.00;;;7.60;94.00;;;;;;5073817;28;20232;-62
2021/11/27 09:50:12;;;;;;;19.88;14.07;;;7.50;93.60;;;;;;5073905;28;20227;-62
2021/11/27 09:52:39;;;;;;;20.13;15.23;;;7.50;93.80;;;;;;5073587;28;20293;-62
2021/11/27 09:55:07;;;;;;;17.63;14.38;;;7.50;93.90;;;;;;5074110;28;20224;-62
2021/11/27 09:57:34;;;;;;;20.75;15.75;;;7.50;93.90;;;;;;5072636;28;20278;-62
2021/11/27 10:00:01;;;;;;;23.88;16.20;;;7.50;93.90;;;;;;5053938;28;20235;-62
2021/11/27 10:02:29;;;;;;;23.58;15.38;;;7.50;94.00;;;;;;5053424;28;20225;-63
2021/11/27 10:04:58;;;;;;;20.65;13.57;;;7.50;94.00;;;;;;5053688;28;20238;-63
2021/11/27 10:07:27;;;;;;;18.77;14.57;;;7.60;94.10;;;;;;5053703;28;20686;-64
2021/11/27 10:09:54;;;;;;;18.67;15.60;;;7.50;94.10;;;;;;5053323;28;21047;-61
2021/11/27 10:12:22;;;;;;;23.33;15.88;;;7.60;94.10;;;;;;5053626;28;20231;-63
2021/11/27 10:14:50;;;;;;;19.95;15.15;;;7.60;93.90;;;;;;5071951;28;20227;-63
2021/11/27 10:17:18;;;;;;;21.02;14.45;;;7.60;94.10;;;;;;5073050;28;20249;-63
2021/11/27 10:19:51;;;;;;;17.52;14.00;;;7.60;94.10;;;;;;5072904;28;20236;-62
2021/11/27 10:22:21;;;;;;;24.40;16.25;;;7.60;94.10;;;;;;5073242;28;20269;-64
2021/11/27 10:24:50;;;;;;;22.75;16.13;;;7.60;94.00;;;;;;5072794;28;20224;-62
2021/11/27 10:27:19;;;;;;;20.70;15.23;;;7.70;94.00;;;;;;5073077;28;20577;-64
2021/11/27 10:29:56;;;;;;;19.67;14.30;;;7.80;94.00;;;;;;5072733;28;20311;-64
2021/11/27 10:32:31;;;;;;;20.48;13.82;;;7.80;93.90;;;;;;5073130;28;20231;-62
2021/11/27 10:34:58;;;;;;;22.60;14.45;;;7.90;93.90;;;;;;5072510;28;20314;-63
2021/11/27 10:37:28;;;;;;;17.00;13.95;;;7.90;93.70;;;;;;5073264;28;20284;-63
2021/11/27 10:40:01;;;;;;;17.00;14.50;;;8.00;93.60;;;;;;5072667;28;20224;-63
2021/11/27 10:42:28;;;;;;;22.25;13.95;;;8.00;93.40;;;;;;5073073;28;20779;-63
2021/11/27 10:44:56;;;;;;;20.90;14.45;;;8.00;93.50;;;;;;5072356;28;20289;-64
2021/11/27 10:47:23;;;;;;;17.33;13.70;;;8.10;93.50;;;;;;5058423;28;20233;-64
2021/11/27 10:49:51;;;;;;;18.90;13.93;;;8.10;93.60;;;;;;5052513;28;20233;-64
2021/11/27 10:52:21;;;;;;;17.60;14.68;;;8.20;93.60;;;;;;5053118;28;20220;-62
2021/11/27 10:54:52;;;;;;;20.40;14.95;;;8.20;93.60;;;;;;5052464;28;20686;-64
2021/11/27 10:57:30;;;;;;;17.23;13.70;;;8.20;93.40;;;;;;5052940;28;20862;-62
2021/11/27 11:00:00;;;;;;;17.55;13.55;;;8.20;93.50;;;;;;5052431;28;20228;-62
2021/11/27 11:02:28;;;;;;;16.30;12.70;;;8.20;93.40;;;;;;5052847;28;20240;-63
2021/11/27 11:05:07;;;;;;;17.30;13.73;;;8.20;93.40;;;;;;5052361;28;20337;-63
2021/11/27 11:07:35;;;;;;;18.02;14.73;;;8.30;93.40;;;;;;5052842;28;20228;-63
2021/11/27 11:10:19;;;;;;;19.60;14.07;;;8.30;93.20;;;;;;5052277;28;20277;-63
2021/11/27 11:12:50;;;;;;;14.88;11.93;;;8.30;93.20;;;;;;5059734;28;20230;-63
2021/11/27 11:15:23;;;;;;;17.98;13.20;;;8.40;93.40;;;;;;5052427;28;20248;-64
2021/11/27 11:17:53;;;;;;;17.90;13.13;;;8.40;93.30;;;;;;5052045;28;20216;-61
2021/11/27 11:20:23;;;;;;;17.15;13.50;;;8.40;93.30;;;;;;5054150;28;20228;-62
2021/11/27 11:22:58;;;;;;;28.05;18.52;;;8.40;93.30;;;;;;5071819;28;20224;-63
2021/11/27 11:25:27;;;;;;;23.00;17.85;;;8.40;93.30;;;;;;5072336;28;20402;-63
2021/11/27 11:27:54;;;;;;;21.45;15.60;;;8.30;93.40;;;;;;5071786;28;20231;-62
2021/11/27 11:30:23;;;;;;;21.77;15.23;;;8.30;93.50;;;;;;5076312;28;20469;-62
2021/11/27 11:32:51;;;;;;;21.10;15.65;;;8.30;93.40;;;;;;5075904;28;20332;-61
2021/11/27 11:35:18;;;;;;;19.15;14.68;;;8.30;93.30;;;;;;5076067;28;20665;-62
2021/11/27 11:37:45;;;;;;;20.65;14.60;;;8.40;93.40;;;;;;5075953;28;20232;-62
2021/11/27 11:40:13;;;;;;;19.00;13.85;;;8.40;93.50;;;;;;5076247;28;20716;-62
2021/11/27 11:42:42;;;;;;;16.60;14.52;;;8.40;93.40;;;;;;5075893;28;20223;-61
2021/11/27 11:45:10;;;;;;;19.05;13.77;;;8.30;93.50;;;;;;5076380;28;20285;-62
2021/11/27 11:47:37;;;;;;;20.33;14.65;;;8.30;93.60;;;;;;5076151;28;20227;-62
2021/11/27 11:50:08;;;;;;;21.83;15.82;;;8.20;93.50;;;;;;5075678;28;20224;-62
2021/11/27 11:52:43;;;;;;;24.20;17.20;;;8.20;94.00;;;;;;5076144;28;20220;-62
2021/11/27 11:55:14;;;;;;;21.42;15.52;;;8.20;94.00;;;;;;5076022;28;20227;-62
2021/11/27 11:57:45;;;;;;;19.90;14.70;;;8.20;94.20;;;;;;5072657;28;20606;-62
2021/11/27 12:00:30;;;;;;;21.15;15.07;;;8.20;94.10;;;;;;5055821;28;20308;-62
2021/11/27 12:03:06;;;;;;;22.92;16.73;;;8.20;93.80;;;;;;5055560;28;20374;-62
2021/11/27 12:05:34;;;;;;;23.77;15.43;;;8.20;93.80;;;;;;5055925;28;20220;-62
2021/11/27 12:08:01;;;;;;;22.05;13.63;;;8.20;94.00;;;;;;5055368;28;20221;-62
2021/11/27 12:10:29;;;;;;;20.55;16.50;;;8.20;94.00;;;;;;5055681;28;20235;-62
2021/11/27 12:13:29;;;;;;;16.80;13.85;;;8.20;94.10;;;;;;5055373;28;20228;-62
2021/11/27 12:16:05;;;;;;;24.40;15.65;;;8.30;94.00;;;;;;5056828;28;20231;-62
2021/11/27 12:18:32;;;;;;;23.40;18.55;;;8.30;94.00;;;;;;5075894;28;20222;-62
2021/11/27 12:21:01;;;;;;;32.78;28.30;;;8.30;94.10;;;;;;5074959;28;20216;-62
2021/11/27 12:23:35;;;;;;;40.72;33.03;;;8.30;93.90;;;;;;5075713;28;20306;-62
2021/11/27 12:26:29;;;;;;;41.45;33.92;;;8.30;93.90;;;;;;5074652;28;20294;-62
2021/11/27 12:29:12;;;;;;;31.90;23.73;;;8.40;94.00;;;;;;5053619;28;20237;-62
2021/11/27 12:31:51;;;;;;;22.85;18.33;;;8.40;93.90;;;;;;5055217;28;20629;-62
2021/11/27 12:34:43;;;;;;;22.42;19.23;;;8.40;93.70;;;;;;5055044;28;20233;-62
2021/11/27 12:37:27;;;;;;;44.63;32.15;;;8.40;93.80;;;;;;5054890;28;20252;-62
2021/11/27 12:39:55;;;;;;;36.00;27.65;;;8.30;93.70;;;;;;5052346;28;20282;-62
2021/11/27 12:42:36;;;;;;;19.35;15.73;;;8.30;94.00;;;;;;5057169;28;20221;-62
2021/11/27 12:45:35;;;;;;;22.88;16.30;;;8.30;94.00;;;;;;5052914;28;20221;-62
2021/11/27 12:48:02;;;;;;;23.67;18.80;;;8.30;94.20;;;;;;5052816;28;20323;-62
2021/11/27 12:50:29;;;;;;;23.80;17.65;;;8.40;94.40;;;;;;5052941;28;20741;-62